createdAt,value
2019-04-05T00:02:22.410Z,86.10
2019-04-05T00:04:50.680Z,86.21
2019-04-05T00:07:18.931Z,86.31
2019-04-05T00:09:47.207Z,86.30
2019-04-05T00:12:15.459Z,86.05
2019-04-05T00:14:43.733Z,86.26
2019-04-05T00:17:11.994Z,85.99
2019-04-05T00:19:40.330Z,86.01
2019-04-05T00:22:08.578Z,85.88
2019-04-05T00:24:36.858Z,85.98
2019-04-05T00:27:05.167Z,85.64
2019-04-05T00:29:33.442Z,86.03
2019-04-05T00:32:01.747Z,86.06
2019-04-05T00:34:30.017Z,85.92
2019-04-05T00:36:58.262Z,86.30
2019-04-05T00:39:26.553Z,86.23
2019-04-05T00:41:54.816Z,86.25
2019-04-05T00:44:23.095Z,86.49
2019-04-05T00:46:51.341Z,86.57
2019-04-05T00:49:19.616Z,85.80
2019-04-05T00:51:47.894Z,85.81
2019-04-05T00:54:16.168Z,85.96
2019-04-05T00:56:44.417Z,86.00
2019-04-05T00:59:12.805Z,85.56
2019-04-05T01:01:41.061Z,85.09
2019-04-05T01:04:09.404Z,84.74
2019-04-05T01:06:38.655Z,84.44
2019-04-05T01:09:07.840Z,84.58
2019-04-05T01:11:36.090Z,85.45
2019-04-05T01:14:04.362Z,86.03
2019-04-05T01:16:32.627Z,86.52
2019-04-05T01:19:03.871Z,86.55
2019-04-05T01:21:36.803Z,86.46
2019-04-05T01:24:05.040Z,86.17
2019-04-05T01:26:33.307Z,86.25
2019-04-05T01:29:02.577Z,86.18
2019-04-05T01:31:30.846Z,85.97
2019-04-05T01:33:59.098Z,85.66
2019-04-05T01:36:27.365Z,85.69
2019-04-05T01:38:55.619Z,85.62
2019-04-05T01:41:23.936Z,85.22
2019-04-05T01:43:52.211Z,85.79
2019-04-05T01:46:20.483Z,86.24
2019-04-05T01:48:48.721Z,85.33
2019-04-05T01:51:16.989Z,84.62
2019-04-05T01:53:45.307Z,84.28
2019-04-05T01:56:13.583Z,84.21
2019-04-05T01:58:41.825Z,84.14
2019-04-05T02:01:10.101Z,83.96
2019-04-05T02:03:38.349Z,83.49
2019-04-05T02:06:06.616Z,83.61
2019-04-05T02:08:34.882Z,83.34
2019-04-05T02:11:03.176Z,83.05
2019-04-05T02:13:31.430Z,82.97
2019-04-05T02:16:06.327Z,83.18
2019-04-05T02:18:30.359Z,83.35
2019-04-05T02:20:58.637Z,83.19
2019-04-05T02:23:26.885Z,83.41
2019-04-05T02:25:55.161Z,83.84
2019-04-05T02:28:25.487Z,83.86
2019-04-05T02:30:53.413Z,83.86
2019-04-05T02:33:21.668Z,84.06
2019-04-05T02:35:49.941Z,83.86
2019-04-05T02:38:18.197Z,84.30
2019-04-05T02:40:46.464Z,84.26
2019-04-05T02:43:14.712Z,84.08
2019-04-05T02:45:42.961Z,84.14
2019-04-05T02:48:11.235Z,84.73
2019-04-05T02:50:41.289Z,84.88
2019-04-05T02:53:09.575Z,83.70
2019-04-05T02:55:38.955Z,84.18
2019-04-05T02:58:07.251Z,84.49
2019-04-05T03:00:35.514Z,83.93
2019-04-05T03:03:04.182Z,83.72
2019-04-05T03:05:32.413Z,83.73
2019-04-05T03:08:00.706Z,84.00
2019-04-05T03:11:05.616Z,84.26
2019-04-05T03:13:36.059Z,84.21
2019-04-05T03:16:06.843Z,85.29
2019-04-05T03:18:38.756Z,85.77
2019-04-05T03:21:07.780Z,86.12
2019-04-05T03:23:39.279Z,86.15
2019-04-05T03:26:08.935Z,86.56
2019-04-05T03:28:37.987Z,86.85
2019-04-05T03:31:06.267Z,86.51
2019-04-05T03:33:34.586Z,87.54
2019-04-05T03:36:02.890Z,88.06
2019-04-05T03:38:31.373Z,87.95
2019-04-05T03:40:59.643Z,87.59
2019-04-05T03:43:27.904Z,88.27
2019-04-05T03:45:56.168Z,88.68
2019-04-05T03:48:24.446Z,88.85
2019-04-05T03:50:52.707Z,88.71
2019-04-05T03:53:21.065Z,89.00
2019-04-05T03:55:49.478Z,89.09
2019-04-05T03:58:17.763Z,89.11
2019-04-05T04:00:46.091Z,89.41
2019-04-05T04:03:14.388Z,89.80
2019-04-05T04:05:42.644Z,89.40
2019-04-05T04:08:10.932Z,89.30
2019-04-05T04:10:39.186Z,89.66
2019-04-05T04:13:07.554Z,89.43
2019-04-05T04:15:35.805Z,88.82
2019-04-05T04:18:04.074Z,88.39
2019-04-05T04:20:46.838Z,88.31
2019-04-05T04:23:15.122Z,88.52
2019-04-05T04:25:43.461Z,88.68
2019-04-05T04:28:11.758Z,88.79
2019-04-05T04:30:40.074Z,88.87
2019-04-05T04:33:16.709Z,88.78
2019-04-05T04:35:44.953Z,88.48
2019-04-05T04:38:13.236Z,88.30
2019-04-05T04:40:41.786Z,87.92
2019-04-05T04:43:10.608Z,88.11
2019-04-05T04:45:38.864Z,88.29
2019-04-05T04:48:07.160Z,88.52
2019-04-05T04:50:35.406Z,88.42
2019-04-05T04:53:03.680Z,88.17
2019-04-05T04:55:31.942Z,87.92
2019-04-05T04:58:00.211Z,87.90
2019-04-05T05:00:28.461Z,88.00
2019-04-05T05:02:56.736Z,88.01
2019-04-05T05:05:25.230Z,87.61
2019-04-05T05:07:53.578Z,87.34
2019-04-05T05:10:21.834Z,87.13
2019-04-05T05:12:50.142Z,86.91
2019-04-05T05:15:18.426Z,86.41
2019-04-05T05:17:58.089Z,86.15
2019-04-05T05:20:16.661Z,86.60
2019-04-05T05:22:44.914Z,87.10
2019-04-05T05:25:15.375Z,87.32
2019-04-05T05:27:43.585Z,87.54
2019-04-05T05:30:12.118Z,87.65
2019-04-05T05:32:40.433Z,87.69
2019-04-05T05:35:08.702Z,87.67
2019-04-05T05:37:36.956Z,87.61
2019-04-05T05:40:06.851Z,87.41
2019-04-05T05:42:35.099Z,87.22
2019-04-05T05:45:04.603Z,87.10
2019-04-05T05:47:32.844Z,86.95
2019-04-05T05:50:01.143Z,86.65
2019-04-05T05:52:29.478Z,86.67
2019-04-05T05:54:57.817Z,86.51
2019-04-05T05:57:26.425Z,86.51
2019-04-05T05:59:54.842Z,86.56
2019-04-05T06:02:23.104Z,86.65
2019-04-05T06:04:51.381Z,86.60
2019-04-05T06:07:20.198Z,86.56
2019-04-05T06:09:48.500Z,86.04
2019-04-05T06:12:16.751Z,86.09
2019-04-05T06:14:45.177Z,86.11
2019-04-05T06:17:14.256Z,86.10
2019-04-05T06:19:42.585Z,85.75
2019-04-05T06:22:10.851Z,85.39
2019-04-05T06:24:39.149Z,85.11
2019-04-05T06:27:07.503Z,84.85
2019-04-05T06:29:35.792Z,84.59
2019-04-05T06:32:04.148Z,84.34
2019-04-05T06:34:32.455Z,83.71
2019-04-05T06:37:00.716Z,83.16
2019-04-05T06:39:28.974Z,82.93
2019-04-05T06:41:57.350Z,83.09
2019-04-05T06:44:27.960Z,83.01
2019-04-05T06:46:57.275Z,82.32
2019-04-05T06:49:25.606Z,81.98
2019-04-05T06:51:53.882Z,82.45
2019-04-05T06:54:22.173Z,82.58
2019-04-05T06:56:50.462Z,82.31
2019-04-05T06:59:19.430Z,82.84
2019-04-05T07:01:47.955Z,82.52
2019-04-05T07:04:16.224Z,82.23
2019-04-05T07:06:44.518Z,81.77
2019-04-05T07:09:12.972Z,81.00
2019-04-05T07:11:41.290Z,81.00
2019-04-05T07:14:09.549Z,81.28
2019-04-05T07:16:37.817Z,80.75
2019-04-05T07:19:06.085Z,80.80
2019-04-05T07:21:34.479Z,80.76
2019-04-05T07:24:02.799Z,79.80
2019-04-05T07:26:31.089Z,79.80
2019-04-05T07:28:59.403Z,79.98
2019-04-05T07:31:27.745Z,79.61
2019-04-05T07:33:56.341Z,79.73
2019-04-05T07:36:24.831Z,78.28
2019-04-05T07:38:53.163Z,78.79
2019-04-05T07:41:21.471Z,78.15
2019-04-05T07:43:49.987Z,78.89
2019-04-05T07:46:18.341Z,76.16
2019-04-05T07:48:46.639Z,75.08
2019-04-05T07:51:14.931Z,74.12
2019-04-05T07:53:44.699Z,73.84
2019-04-05T07:56:12.974Z,73.98
2019-04-05T07:58:41.231Z,74.93
2019-04-05T08:01:09.583Z,72.24
2019-04-05T08:03:37.914Z,71.51
2019-04-05T08:06:06.188Z,71.70
2019-04-05T08:08:43.609Z,73.48
2019-04-05T08:11:11.907Z,74.05
2019-04-05T08:13:40.806Z,74.42
2019-04-05T08:16:09.097Z,72.97
2019-04-05T08:18:37.362Z,71.64
2019-04-05T08:21:05.623Z,71.67
2019-04-05T08:23:33.981Z,71.62
2019-04-05T08:26:02.321Z,71.55
2019-04-05T08:28:30.668Z,69.45
2019-04-05T08:30:58.998Z,68.56
2019-04-05T08:33:33.065Z,68.09
2019-04-05T08:36:01.312Z,69.30
2019-04-05T08:38:29.598Z,67.74
2019-04-05T08:40:57.851Z,67.75
2019-04-05T08:43:26.195Z,69.32
2019-04-05T08:45:56.523Z,71.88
2019-04-05T08:48:25.002Z,71.99
2019-04-05T08:50:53.271Z,71.71
2019-04-05T08:53:21.626Z,67.00
2019-04-05T08:55:50.000Z,66.44
2019-04-05T08:58:18.363Z,67.91
2019-04-05T09:00:46.769Z,67.80
2019-04-05T09:03:15.052Z,67.04
2019-04-05T09:05:43.379Z,68.22
2019-04-05T09:08:11.698Z,66.96
2019-04-05T09:10:39.960Z,67.84
2019-04-05T09:13:08.447Z,68.09
2019-04-05T09:15:36.704Z,68.22
2019-04-05T09:18:04.973Z,67.86
2019-04-05T09:20:33.204Z,68.01
2019-04-05T09:23:01.563Z,67.55
2019-04-05T09:25:29.810Z,67.17
2019-04-05T09:27:58.101Z,64.34
2019-04-05T09:30:26.346Z,62.34
2019-04-05T09:32:54.695Z,63.78
2019-04-05T09:35:23.152Z,63.45
2019-04-05T09:37:51.435Z,64.86
2019-04-05T09:40:21.147Z,64.25
2019-04-05T09:42:49.632Z,64.33
2019-04-05T09:45:17.915Z,64.27
2019-04-05T09:47:46.158Z,63.62
2019-04-05T09:50:14.438Z,63.47
2019-04-05T09:52:42.714Z,63.06
2019-04-05T09:55:10.998Z,62.14
2019-04-05T09:57:39.244Z,62.38
2019-04-05T10:00:09.709Z,60.52
2019-04-05T10:02:46.236Z,61.50
2019-04-05T10:05:14.523Z,61.92
2019-04-05T10:07:54.100Z,60.96
2019-04-05T10:10:12.772Z,59.80
2019-04-05T10:12:41.015Z,61.36
2019-04-05T10:15:09.315Z,62.30
2019-04-05T10:17:37.584Z,61.66
2019-04-05T10:20:08.747Z,61.79
2019-04-05T10:22:37.001Z,61.90
2019-04-05T10:25:08.227Z,60.48
2019-04-05T10:27:36.499Z,60.85
2019-04-05T10:30:12.300Z,61.20
2019-04-05T10:32:40.566Z,60.36
2019-04-05T10:35:08.849Z,60.88
2019-04-05T10:37:37.860Z,61.06
2019-04-05T10:40:07.148Z,60.71
2019-04-05T10:42:36.438Z,60.44
2019-04-05T10:45:09.299Z,60.57
2019-04-05T10:47:37.542Z,61.14
2019-04-05T10:50:10.708Z,60.78
2019-04-05T10:52:38.967Z,60.93
2019-04-05T10:55:07.743Z,61.62
2019-04-05T10:57:36.029Z,60.29
2019-04-05T11:00:07.116Z,59.90
2019-04-05T11:02:35.359Z,61.25
2019-04-05T11:05:04.001Z,61.66
2019-04-05T11:07:34.923Z,61.84
2019-04-05T11:10:02.349Z,61.30
2019-04-05T11:12:30.598Z,61.37
2019-04-05T11:14:58.951Z,61.24
2019-04-05T11:17:27.227Z,61.71
2019-04-05T11:19:55.518Z,61.90
2019-04-05T11:22:23.810Z,60.83
2019-04-05T11:24:52.172Z,60.53
2019-04-05T11:27:20.691Z,57.01
2019-04-05T11:29:48.938Z,57.00
2019-04-05T11:32:17.225Z,57.91
2019-04-05T11:34:45.488Z,58.72
2019-04-05T11:37:13.770Z,59.21
2019-04-05T11:39:42.032Z,60.01
2019-04-05T11:42:10.427Z,60.11
2019-04-05T11:44:38.686Z,59.57
2019-04-05T11:47:06.962Z,60.33
2019-04-05T11:49:35.212Z,59.30
2019-04-05T11:52:03.512Z,58.70
2019-04-05T11:54:31.802Z,59.70
2019-04-05T11:57:00.088Z,58.81
2019-04-05T11:59:28.362Z,58.30
2019-04-05T12:01:58.391Z,56.10
2019-04-05T12:04:26.650Z,58.20
2019-04-05T12:06:54.993Z,57.54
2019-04-05T12:09:23.252Z,54.81
2019-04-05T12:11:51.534Z,56.62
2019-04-05T12:14:29.701Z,56.66
2019-04-05T12:16:49.777Z,56.22
2019-04-05T12:19:18.035Z,57.38
2019-04-05T12:21:46.456Z,58.29
2019-04-05T12:24:14.732Z,57.79
2019-04-05T12:26:43.074Z,54.77
2019-04-05T12:29:11.397Z,54.71
2019-04-05T12:31:39.686Z,55.98
2019-04-05T12:34:08.009Z,54.71
2019-04-05T12:36:36.285Z,56.85
2019-04-05T12:39:08.225Z,57.39
2019-04-05T12:41:40.400Z,56.41
2019-04-05T12:44:06.753Z,58.58
2019-04-05T12:46:35.118Z,57.71
2019-04-05T12:49:03.408Z,54.09
2019-04-05T12:51:31.684Z,57.03
2019-04-05T12:53:59.960Z,56.08
2019-04-05T12:56:28.246Z,56.33
2019-04-05T12:58:56.748Z,56.47
2019-04-05T13:01:25.119Z,56.61
2019-04-05T13:03:53.483Z,55.85
2019-04-05T13:06:22.714Z,56.03
2019-04-05T13:08:51.519Z,56.34
2019-04-05T13:11:19.928Z,55.93
2019-04-05T13:13:48.220Z,54.40
2019-04-05T13:16:16.480Z,54.71
2019-04-05T13:18:44.758Z,52.47
2019-04-05T13:21:15.685Z,54.32
2019-04-05T13:23:43.188Z,56.30
2019-04-05T13:26:12.411Z,56.43
2019-04-05T13:28:40.866Z,56.99
2019-04-05T13:31:09.238Z,56.33
2019-04-05T13:33:37.549Z,53.34
2019-04-05T13:36:08.318Z,53.69
2019-04-05T13:38:35.959Z,53.69
2019-04-05T13:41:04.269Z,55.63
2019-04-05T13:43:32.763Z,54.31
2019-04-05T13:46:06.935Z,54.65
2019-04-05T13:48:35.256Z,54.48
2019-04-05T13:51:03.516Z,57.19
2019-04-05T13:53:31.839Z,57.33
2019-04-05T13:56:00.217Z,57.27
2019-04-05T13:58:28.750Z,57.64
2019-04-05T14:00:57.026Z,57.09
2019-04-05T14:03:25.293Z,57.31
2019-04-05T14:05:55.258Z,55.71
2019-04-05T14:08:23.954Z,57.63
2019-04-05T14:10:52.207Z,57.72
2019-04-05T14:13:20.538Z,56.57
2019-04-05T14:15:48.812Z,56.14
2019-04-05T14:18:17.103Z,54.91
2019-04-05T14:20:45.436Z,54.85
2019-04-05T14:23:13.787Z,55.98
2019-04-05T14:25:42.115Z,57.01
2019-04-05T14:28:10.409Z,55.98
2019-04-05T14:30:38.692Z,56.00
2019-04-05T14:33:06.996Z,58.12
2019-04-05T14:35:35.269Z,56.37
2019-04-05T14:38:03.599Z,55.23
2019-04-05T14:40:33.141Z,57.20
2019-04-05T14:43:01.495Z,58.61
2019-04-05T14:45:29.782Z,58.91
2019-04-05T14:47:58.630Z,58.02
2019-04-05T14:50:28.216Z,56.69
2019-04-05T14:53:00.786Z,58.04
2019-04-05T14:55:27.629Z,57.49
2019-04-05T14:57:57.324Z,55.53
2019-04-05T15:00:25.628Z,55.38
2019-04-05T15:02:53.892Z,56.20
2019-04-05T15:05:22.223Z,57.40
2019-04-05T15:07:51.168Z,55.42
2019-04-05T15:10:20.109Z,56.48
2019-04-05T15:12:48.398Z,57.28
2019-04-05T15:15:16.698Z,59.00
2019-04-05T15:17:48.173Z,59.11
2019-04-05T15:20:15.327Z,59.13
2019-04-05T15:22:43.597Z,57.61
2019-04-05T15:25:11.981Z,59.23
2019-04-05T15:27:40.388Z,59.51
2019-04-05T15:30:08.715Z,59.15
2019-04-05T15:32:37.848Z,59.28
2019-04-05T15:35:07.851Z,56.60
2019-04-05T15:37:37.729Z,57.45
2019-04-05T15:40:07.646Z,57.51
2019-04-05T15:42:35.997Z,58.47
2019-04-05T15:45:06.722Z,58.89
2019-04-05T15:47:35.020Z,59.03
2019-04-05T15:50:03.547Z,58.88
2019-04-05T15:52:32.187Z,60.39
2019-04-05T15:55:01.751Z,59.80
2019-04-05T15:57:33.459Z,60.23
2019-04-05T16:00:03.683Z,59.90
2019-04-05T16:02:33.009Z,59.64
2019-04-05T16:05:00.548Z,59.99
2019-04-05T16:07:28.823Z,61.20
2019-04-05T16:09:57.669Z,61.33
2019-04-05T16:12:26.081Z,60.21
2019-04-05T16:14:54.371Z,61.71
2019-04-05T16:17:22.806Z,61.02
2019-04-05T16:19:51.103Z,60.38
2019-04-05T16:22:30.785Z,60.50
2019-04-05T16:24:49.398Z,59.85
2019-04-05T16:27:17.687Z,60.43
2019-04-05T16:29:45.951Z,60.75
2019-04-05T16:32:14.937Z,60.87
2019-04-05T16:34:43.190Z,61.32
2019-04-05T16:37:11.481Z,61.67
2019-04-05T16:39:39.746Z,61.54
2019-04-05T16:42:10.178Z,61.85
2019-04-05T16:44:38.019Z,61.81
2019-04-05T16:47:06.386Z,61.85
2019-04-05T16:49:34.715Z,62.02
2019-04-05T16:52:03.008Z,61.93
2019-04-05T16:54:31.270Z,62.05
2019-04-05T16:56:59.550Z,61.97
2019-04-05T16:59:27.871Z,62.17
2019-04-05T17:01:56.869Z,61.70
2019-04-05T17:04:25.237Z,61.72
2019-04-05T17:06:53.497Z,62.08
2019-04-05T17:09:21.761Z,61.61
2019-04-05T17:11:50.027Z,61.96
2019-04-05T17:14:19.246Z,62.39
2019-04-05T17:16:47.531Z,62.13
2019-04-05T17:19:15.799Z,62.63
2019-04-05T17:21:44.060Z,62.82
2019-04-05T17:24:12.349Z,62.94
2019-04-05T17:26:40.620Z,62.48
2019-04-05T17:29:09.464Z,62.81
2019-04-05T17:31:37.722Z,63.78
2019-04-05T17:34:05.992Z,64.38
2019-04-05T17:36:34.249Z,65.33
2019-04-05T17:39:02.535Z,65.89
2019-04-05T17:41:30.864Z,65.82
2019-04-05T17:43:59.265Z,66.25
2019-04-05T17:46:27.509Z,66.17
2019-04-05T17:48:55.788Z,66.66
2019-04-05T17:51:24.028Z,67.00
2019-04-05T17:53:52.417Z,67.41
2019-04-05T17:56:20.672Z,67.56
2019-04-05T17:58:49.610Z,67.70
2019-04-05T18:01:17.899Z,67.77
2019-04-05T18:03:46.193Z,67.86
2019-04-05T18:06:14.475Z,68.16
2019-04-05T18:08:48.577Z,68.29
2019-04-05T18:11:16.827Z,68.65
2019-04-05T18:13:45.098Z,69.39
2019-04-05T18:16:13.379Z,69.76
2019-04-05T18:18:41.743Z,69.52
2019-04-05T18:21:09.991Z,69.17
2019-04-05T18:23:38.308Z,69.12
2019-04-05T18:26:06.578Z,69.27
2019-04-05T18:28:35.988Z,69.86
2019-04-05T18:31:05.871Z,69.60
2019-04-05T18:33:34.101Z,69.85
2019-04-05T18:36:02.349Z,69.97
2019-04-05T18:38:30.606Z,70.81
2019-04-05T18:40:58.983Z,70.72
2019-04-05T18:43:27.233Z,70.42
2019-04-05T18:45:55.578Z,70.70
2019-04-05T18:48:24.409Z,70.79
2019-04-05T18:50:52.701Z,70.75
2019-04-05T18:53:21.032Z,70.98
2019-04-05T18:55:49.333Z,71.12
2019-04-05T18:58:17.601Z,70.98
2019-04-05T19:00:45.939Z,71.46
2019-04-05T19:03:14.188Z,71.36
2019-04-05T19:05:42.503Z,71.27
2019-04-05T19:08:10.840Z,71.83
2019-04-05T19:10:39.137Z,72.20
2019-04-05T19:13:07.402Z,72.03
2019-04-05T19:15:35.672Z,71.97
2019-04-05T19:18:03.926Z,72.35
2019-04-05T19:20:32.200Z,72.75
2019-04-05T19:23:00.455Z,72.99
2019-04-05T19:25:28.766Z,72.82
2019-04-05T19:27:57.026Z,72.54
2019-04-05T19:50:25.352Z,73.11
2019-04-05T19:52:53.607Z,73.05
2019-04-05T19:55:21.960Z,73.18
2019-04-05T19:57:50.220Z,73.07
2019-04-05T20:00:19.176Z,73.41
2019-04-05T20:02:47.450Z,73.71
2019-04-05T20:05:15.730Z,73.45
2019-04-05T20:07:43.992Z,74.25
2019-04-05T20:10:12.267Z,74.22
2019-04-05T20:12:40.526Z,73.88
2019-04-05T20:15:08.808Z,73.39
2019-04-05T20:17:37.060Z,73.79
2019-04-05T20:20:08.356Z,73.13
2019-04-05T20:22:36.645Z,73.03
2019-04-05T20:25:07.887Z,73.10
2019-04-05T20:27:36.174Z,73.22
2019-04-05T20:30:06.634Z,73.81
2019-04-05T20:32:34.974Z,74.05
2019-04-05T20:35:03.245Z,74.40
2019-04-05T20:37:31.519Z,74.89
2019-04-05T20:39:59.844Z,75.00
2019-04-05T20:42:28.202Z,75.08
2019-04-05T20:44:56.451Z,75.10
2019-04-05T20:47:24.725Z,74.87
2019-04-05T20:50:01.910Z,74.59
2019-04-05T20:52:30.164Z,74.62
2019-04-05T20:54:58.425Z,75.07
2019-04-05T20:57:26.731Z,75.55
2019-04-05T20:59:55.060Z,75.69
2019-04-05T21:02:23.414Z,75.58
2019-04-05T21:04:51.669Z,75.44
2019-04-05T21:07:19.938Z,75.30
2019-04-05T21:09:48.589Z,75.35
2019-04-05T21:12:16.886Z,75.52
2019-04-05T21:14:45.151Z,75.68
2019-04-05T21:17:13.421Z,75.99
2019-04-05T21:19:41.673Z,76.02
2019-04-05T21:22:10.031Z,76.81
2019-04-05T21:24:38.285Z,77.60
2019-04-05T21:27:06.558Z,77.33
2019-04-05T21:29:34.812Z,77.50
2019-04-05T21:32:03.167Z,77.03
2019-04-05T21:34:31.494Z,77.21
2019-04-05T21:36:59.778Z,77.17
2019-04-05T21:39:28.864Z,77.41
2019-04-05T21:41:57.129Z,77.82
2019-04-05T21:44:25.393Z,77.89
2019-04-05T21:46:53.668Z,78.74
2019-04-05T21:49:21.932Z,78.32
2019-04-05T21:51:50.212Z,78.00
2019-04-05T21:54:18.461Z,78.22
2019-04-05T21:56:46.721Z,77.92
2019-04-05T21:59:15.013Z,77.89
2019-04-05T22:01:43.266Z,77.80
2019-04-05T22:04:11.550Z,77.81
2019-04-05T22:06:39.812Z,77.75
2019-04-05T22:09:12.317Z,77.90
2019-04-05T22:11:40.584Z,78.03
2019-04-05T22:14:08.858Z,77.45
2019-04-05T22:16:37.110Z,77.57
2019-04-05T22:19:05.449Z,77.04
2019-04-05T22:21:33.713Z,77.30
2019-04-05T22:24:01.986Z,77.16
2019-04-05T22:26:30.384Z,77.19
2019-04-05T22:28:58.657Z,77.05
2019-04-05T22:31:26.911Z,77.47
2019-04-05T22:33:55.227Z,77.42
2019-04-05T22:36:23.488Z,77.54
2019-04-05T22:38:51.759Z,77.86
2019-04-05T22:41:20.009Z,77.82
2019-04-05T22:43:48.297Z,77.81
2019-04-05T22:46:16.555Z,77.58
2019-04-05T22:48:44.836Z,77.66
2019-04-05T22:51:13.093Z,77.10
2019-04-05T22:53:41.370Z,77.45
2019-04-05T22:56:10.556Z,77.67
2019-04-05T22:58:38.837Z,77.43
2019-04-05T23:01:07.103Z,77.43
2019-04-05T23:03:35.385Z,77.51
2019-04-05T23:06:03.662Z,77.78
2019-04-05T23:08:31.949Z,77.99
2019-04-05T23:11:00.203Z,78.11
2019-04-05T23:13:28.486Z,78.20
2019-04-05T23:15:56.745Z,78.50
2019-04-05T23:18:25.032Z,78.60
2019-04-05T23:20:53.276Z,79.24
2019-04-05T23:23:21.553Z,79.57
2019-04-05T23:25:49.873Z,79.54
2019-04-05T23:28:18.149Z,79.65
2019-04-05T23:30:46.417Z,80.03
2019-04-05T23:33:14.689Z,80.12
2019-04-05T23:35:42.935Z,80.07
2019-04-05T23:38:11.219Z,80.39
2019-04-05T23:40:39.486Z,80.44
2019-04-05T23:43:07.761Z,80.27
2019-04-05T23:45:36.030Z,80.47
2019-04-05T23:48:04.278Z,80.67
2019-04-05T23:50:32.572Z,80.76
2019-04-05T23:53:00.827Z,80.78
2019-04-05T23:55:33.449Z,80.92
2019-04-05T23:57:59.730Z,81.08
